sensor_id;sensor_type;location;lat;lon;timestamp;pressure;altitude;pressure_sealevel;temperature;humidity
65534;BME280;53640;55.838;37.184;2023-05-29T00:02:08;99412.53;;;8.56;50.01
65534;BME280;53640;55.838;37.184;2023-05-29T00:04:35;99426.03;;;8.63;49.87
65534;BME280;53640;55.838;37.184;2023-05-29T00:07:02;99420.63;;;8.56;49.91
65534;BME280;53640;55.838;37.184;2023-05-29T00:09:29;99450.53;;;8.68;50.52
65534;BME280;53640;55.838;37.184;2023-05-29T00:11:55;99400.59;;;8.31;50.39
65534;BME280;53640;55.838;37.184;2023-05-29T00:14:22;99447.41;;;8.58;50.43
65534;BME280;53640;55.838;37.184;2023-05-29T00:16:51;99454.25;;;8.60;50.54
65534;BME280;53640;55.838;37.184;2023-05-29T00:19:18;99448.44;;;8.50;50.78
65534;BME280;53640;55.838;37.184;2023-05-29T00:21:47;99426.13;;;8.35;50.49
65534;BME280;53640;55.838;37.184;2023-05-29T00:24:16;99422.63;;;8.34;50.71
65534;BME280;53640;55.838;37.184;2023-05-29T00:26:43;99422.44;;;8.36;50.83
65534;BME280;53640;55.838;37.184;2023-05-29T00:29:10;99432.81;;;8.39;50.88
65534;BME280;53640;55.838;37.184;2023-05-29T00:31:37;99433.00;;;8.38;51.09
65534;BME280;53640;55.838;37.184;2023-05-29T00:34:06;99460.63;;;8.46;50.83
65534;BME280;53640;55.838;37.184;2023-05-29T00:36:34;99446.91;;;8.41;50.87
65534;BME280;53640;55.838;37.184;2023-05-29T00:39:01;99417.34;;;8.20;50.78
65534;BME280;53640;55.838;37.184;2023-05-29T00:41:27;99432.50;;;8.21;50.64
65534;BME280;53640;55.838;37.184;2023-05-29T00:43:54;99423.97;;;8.17;51.02
65534;BME280;53640;55.838;37.184;2023-05-29T00:46:20;99454.38;;;8.32;50.69
65534;BME280;53640;55.838;37.184;2023-05-29T00:48:49;99465.59;;;8.36;50.93
65534;BME280;53640;55.838;37.184;2023-05-29T00:51:19;99467.25;;;8.37;51.06
65534;BME280;53640;55.838;37.184;2023-05-29T00:53:47;99424.56;;;8.06;51.15
65534;BME280;53640;55.838;37.184;2023-05-29T00:56:19;99467.19;;;8.30;51.26
65534;BME280;53640;55.838;37.184;2023-05-29T00:58:48;99470.94;;;8.29;50.99
65534;BME280;53640;55.838;37.184;2023-05-29T01:01:20;99454.03;;;8.14;51.03
65534;BME280;53640;55.838;37.184;2023-05-29T01:03:51;99463.78;;;8.15;51.08
65534;BME280;53640;55.838;37.184;2023-05-29T01:06:19;99474.59;;;8.22;51.01
65534;BME280;53640;55.838;37.184;2023-05-29T01:08:46;99438.38;;;7.96;51.14
65534;BME280;53640;55.838;37.184;2023-05-29T01:12:03;99433.59;;;7.92;50.90
65534;BME280;53640;55.838;37.184;2023-05-29T01:14:15;99453.13;;;8.00;51.16
65534;BME280;53640;55.838;37.184;2023-05-29T01:22:40;99481.59;;;8.09;51.16
65534;BME280;53640;55.838;37.184;2023-05-29T01:25:27;99439.16;;;7.83;51.28
65534;BME280;53640;55.838;37.184;2023-05-29T01:27:58;99454.13;;;7.93;51.35
65534;BME280;53640;55.838;37.184;2023-05-29T01:30:28;99472.38;;;7.97;51.70
65534;BME280;53640;55.838;37.184;2023-05-29T01:32:55;99460.53;;;7.92;51.36
65534;BME280;53640;55.838;37.184;2023-05-29T01:35:21;99474.25;;;7.97;51.65
65534;BME280;53640;55.838;37.184;2023-05-29T01:37:48;99476.56;;;8.00;51.59
65534;BME280;53640;55.838;37.184;2023-05-29T01:40:15;99444.94;;;7.80;51.58
65534;BME280;53640;55.838;37.184;2023-05-29T01:42:41;99474.63;;;7.94;51.61
65534;BME280;53640;55.838;37.184;2023-05-29T01:45:09;99473.41;;;7.96;51.81
65534;BME280;53640;55.838;37.184;2023-05-29T01:47:38;99485.91;;;8.04;51.95
65534;BME280;53640;55.838;37.184;2023-05-29T01:50:05;99483.22;;;8.04;51.73
65534;BME280;53640;55.838;37.184;2023-05-29T01:52:36;99489.63;;;8.03;51.86
65534;BME280;53640;55.838;37.184;2023-05-29T01:55:02;99452.41;;;7.85;51.99
65534;BME280;53640;55.838;37.184;2023-05-29T01:57:30;99483.16;;;7.97;51.90
65534;BME280;53640;55.838;37.184;2023-05-29T01:59:57;99496.91;;;8.02;51.83
65534;BME280;53640;55.838;37.184;2023-05-29T02:02:23;99443.28;;;7.79;51.90
65534;BME280;53640;55.838;37.184;2023-05-29T02:04:50;99491.50;;;8.02;51.87
65534;BME280;53640;55.838;37.184;2023-05-29T02:07:18;99447.41;;;7.82;51.94
65534;BME280;53640;55.838;37.184;2023-05-29T02:09:44;99493.59;;;8.07;51.90
65534;BME280;53640;55.838;37.184;2023-05-29T02:12:10;99439.31;;;7.75;51.75
65534;BME280;53640;55.838;37.184;2023-05-29T02:14:37;99465.50;;;7.88;51.83
65534;BME280;53640;55.838;37.184;2023-05-29T02:17:08;99472.59;;;7.96;51.87
65534;BME280;53640;55.838;37.184;2023-05-29T02:19:35;99475.72;;;7.99;51.77
65534;BME280;53640;55.838;37.184;2023-05-29T02:22:02;99491.56;;;8.09;51.88
65534;BME280;53640;55.838;37.184;2023-05-29T02:24:29;99486.56;;;8.06;51.91
65534;BME280;53640;55.838;37.184;2023-05-29T02:26:56;99471.38;;;7.98;51.91
65534;BME280;53640;55.838;37.184;2023-05-29T02:29:22;99496.09;;;8.08;52.00
65534;BME280;53640;55.838;37.184;2023-05-29T02:31:49;99510.69;;;8.21;51.94
65534;BME280;53640;55.838;37.184;2023-05-29T02:34:16;99501.56;;;8.22;52.02
65534;BME280;53640;55.838;37.184;2023-05-29T02:36:43;99496.56;;;8.19;51.88
65534;BME280;53640;55.838;37.184;2023-05-29T02:39:09;99427.13;;;7.86;52.19
65534;BME280;53640;55.838;37.184;2023-05-29T02:41:35;99500.84;;;8.34;51.63
65534;BME280;53640;55.838;37.184;2023-05-29T02:44:02;99503.13;;;8.38;51.76
65534;BME280;53640;55.838;37.184;2023-05-29T02:46:28;99503.56;;;8.41;51.92
65534;BME280;53640;55.838;37.184;2023-05-29T02:48:55;99443.03;;;8.09;51.77
65534;BME280;53640;55.838;37.184;2023-05-29T02:51:22;99461.94;;;8.22;51.76
65534;BME280;53640;55.838;37.184;2023-05-29T02:53:49;99478.63;;;8.32;51.58
65534;BME280;53640;55.838;37.184;2023-05-29T02:56:17;99469.28;;;8.35;51.29
65534;BME280;53640;55.838;37.184;2023-05-29T02:58:44;99406.03;;;7.96;51.17
65534;BME280;53640;55.838;37.184;2023-05-29T03:01:11;99500.94;;;8.61;51.37
65534;BME280;53640;55.838;37.184;2023-05-29T03:03:38;99512.63;;;8.75;51.19
65534;BME280;53640;55.838;37.184;2023-05-29T03:06:06;99411.50;;;8.16;50.98
65534;BME280;53640;55.838;37.184;2023-05-29T03:08:34;99470.66;;;8.59;50.92
65534;BME280;53640;55.838;37.184;2023-05-29T03:11:01;99459.63;;;8.54;50.98
65534;BME280;53640;55.838;37.184;2023-05-29T03:13:27;99453.19;;;8.48;50.78
65534;BME280;53640;55.838;37.184;2023-05-29T03:16:03;99406.44;;;8.28;50.81
65534;BME280;53640;55.838;37.184;2023-05-29T03:18:30;99496.50;;;8.88;50.82
65534;BME280;53640;55.838;37.184;2023-05-29T03:20:57;99387.13;;;8.24;50.54
65534;BME280;53640;55.838;37.184;2023-05-29T03:23:25;99484.44;;;8.91;50.41
65534;BME280;53640;55.838;37.184;2023-05-29T03:25:52;99415.19;;;8.50;50.59
65534;BME280;53640;55.838;37.184;2023-05-29T03:28:19;99491.13;;;9.08;50.47
65534;BME280;53640;55.838;37.184;2023-05-29T03:30:47;99456.63;;;8.90;50.03
65534;BME280;53640;55.838;37.184;2023-05-29T03:33:19;99475.53;;;9.10;50.26
65534;BME280;53640;55.838;37.184;2023-05-29T03:36:05;99427.53;;;8.79;49.82
65534;BME280;53640;55.838;37.184;2023-05-29T03:38:34;99482.63;;;9.18;49.75
65534;BME280;53640;55.838;37.184;2023-05-29T03:41:09;99440.84;;;8.94;49.91
65534;BME280;53640;55.838;37.184;2023-05-29T03:43:38;99547.34;;;9.66;49.95
65534;BME280;53640;55.838;37.184;2023-05-29T03:46:05;99531.13;;;9.66;49.69
65534;BME280;53640;55.838;37.184;2023-05-29T03:48:34;99405.53;;;8.95;49.39
65534;BME280;53640;55.838;37.184;2023-05-29T03:51:01;99418.44;;;9.13;49.15
65534;BME280;53640;55.838;37.184;2023-05-29T03:53:35;99424.06;;;9.18;49.13
65534;BME280;53640;55.838;37.184;2023-05-29T03:56:03;99458.72;;;9.48;49.15
65534;BME280;53640;55.838;37.184;2023-05-29T03:58:30;99427.16;;;9.28;49.21
65534;BME280;53640;55.838;37.184;2023-05-29T04:00:58;99462.53;;;9.53;48.98
65534;BME280;53640;55.838;37.184;2023-05-29T04:03:25;99479.53;;;9.74;48.65
65534;BME280;53640;55.838;37.184;2023-05-29T04:05:51;99472.06;;;9.76;48.44
65534;BME280;53640;55.838;37.184;2023-05-29T04:08:19;99571.41;;;10.40;48.44
65534;BME280;53640;55.838;37.184;2023-05-29T04:10:46;99539.59;;;10.29;48.51
65534;BME280;53640;55.838;37.184;2023-05-29T04:13:14;99504.25;;;10.11;48.17
65534;BME280;53640;55.838;37.184;2023-05-29T04:15:42;99568.66;;;10.60;47.89
65534;BME280;53640;55.838;37.184;2023-05-29T04:18:11;99459.97;;;9.98;47.64
65534;BME280;53640;55.838;37.184;2023-05-29T04:20:39;99555.50;;;10.64;47.20
65534;BME280;53640;55.838;37.184;2023-05-29T04:23:05;99548.22;;;10.71;47.14
65534;BME280;53640;55.838;37.184;2023-05-29T04:25:33;99545.13;;;10.67;47.30
65534;BME280;53640;55.838;37.184;2023-05-29T04:28:03;99539.25;;;10.77;47.11
65534;BME280;53640;55.838;37.184;2023-05-29T04:30:36;99454.66;;;10.30;46.25
65534;BME280;53640;55.838;37.184;2023-05-29T04:33:04;99483.91;;;10.53;46.35
65534;BME280;53640;55.838;37.184;2023-05-29T04:35:32;99528.34;;;10.90;45.96
65534;BME280;53640;55.838;37.184;2023-05-29T04:38:03;99570.47;;;11.24;45.89
65534;BME280;53640;55.838;37.184;2023-05-29T04:40:32;99446.09;;;10.46;45.89
65534;BME280;53640;55.838;37.184;2023-05-29T04:43:00;99567.53;;;11.33;45.40
65534;BME280;53640;55.838;37.184;2023-05-29T04:45:32;99551.75;;;11.23;45.41
65534;BME280;53640;55.838;37.184;2023-05-29T04:48:03;99441.00;;;10.70;45.31
65534;BME280;53640;55.838;37.184;2023-05-29T04:50:32;99497.41;;;11.11;45.58
65534;BME280;53640;55.838;37.184;2023-05-29T04:53:01;99501.91;;;11.24;45.30
65534;BME280;53640;55.838;37.184;2023-05-29T04:55:28;99563.31;;;11.68;44.92
65534;BME280;53640;55.838;37.184;2023-05-29T04:57:56;99581.16;;;11.89;45.13
65534;BME280;53640;55.838;37.184;2023-05-29T05:00:24;99570.28;;;11.89;44.94
65534;BME280;53640;55.838;37.184;2023-05-29T05:02:51;99556.06;;;11.94;44.90
65534;BME280;53640;55.838;37.184;2023-05-29T05:05:18;99541.88;;;11.92;44.72
65534;BME280;53640;55.838;37.184;2023-05-29T05:07:44;99582.50;;;12.23;44.69
65534;BME280;53640;55.838;37.184;2023-05-29T05:10:13;99556.09;;;12.12;44.36
65534;BME280;53640;55.838;37.184;2023-05-29T05:12:41;99563.50;;;12.23;43.86
65534;BME280;53640;55.838;37.184;2023-05-29T05:15:09;99588.34;;;12.45;44.02
65534;BME280;53640;55.838;37.184;2023-05-29T05:17:36;99549.66;;;12.32;43.83
65534;BME280;53640;55.838;37.184;2023-05-29T05:20:06;99585.94;;;12.56;42.92
65534;BME280;53640;55.838;37.184;2023-05-29T05:22:34;99586.25;;;12.66;42.02
65534;BME280;53640;55.838;37.184;2023-05-29T05:25:01;99561.66;;;12.61;41.40
65534;BME280;53640;55.838;37.184;2023-05-29T05:27:30;99582.75;;;12.84;41.63
65534;BME280;53640;55.838;37.184;2023-05-29T05:29:58;99547.78;;;12.69;41.36
65534;BME280;53640;55.838;37.184;2023-05-29T05:32:25;99570.28;;;12.94;41.25
65534;BME280;53640;55.838;37.184;2023-05-29T05:35:00;99559.41;;;12.94;40.85
65534;BME280;53640;55.838;37.184;2023-05-29T05:37:31;99589.53;;;13.23;40.28
65534;BME280;53640;55.838;37.184;2023-05-29T05:39:57;99549.19;;;13.08;40.11
65534;BME280;53640;55.838;37.184;2023-05-29T05:42:28;99572.69;;;13.33;39.11
65534;BME280;53640;55.838;37.184;2023-05-29T05:45:01;99558.84;;;13.34;38.11
65534;BME280;53640;55.838;37.184;2023-05-29T05:47:31;99582.00;;;13.55;37.52
65534;BME280;53640;55.838;37.184;2023-05-29T05:50:01;99589.72;;;13.70;37.54
65534;BME280;53640;55.838;37.184;2023-05-29T05:52:31;99587.88;;;13.82;38.04
65534;BME280;53640;55.838;37.184;2023-05-29T05:55:01;99519.91;;;13.52;36.98
65534;BME280;53640;55.838;37.184;2023-05-29T05:57:30;99544.22;;;13.77;36.10
65534;BME280;53640;55.838;37.184;2023-05-29T05:59:59;99573.00;;;14.08;35.50
65534;BME280;53640;55.838;37.184;2023-05-29T06:02:27;99558.31;;;14.09;35.67
65534;BME280;53640;55.838;37.184;2023-05-29T06:04:53;99559.75;;;14.12;34.00
65534;BME280;53640;55.838;37.184;2023-05-29T06:07:21;99475.09;;;13.66;34.62
65534;BME280;53640;55.838;37.184;2023-05-29T06:09:48;99516.06;;;14.07;32.40
65534;BME280;53640;55.838;37.184;2023-05-29T06:12:19;99532.97;;;14.32;33.13
65534;BME280;53640;55.838;37.184;2023-05-29T06:14:55;99502.81;;;14.22;32.58
65534;BME280;53640;55.838;37.184;2023-05-29T06:17:22;99535.69;;;14.56;32.22
65534;BME280;53640;55.838;37.184;2023-05-29T06:19:49;99523.59;;;14.52;30.12
65534;BME280;53640;55.838;37.184;2023-05-29T06:22:18;99462.44;;;14.31;30.51
65534;BME280;53640;55.838;37.184;2023-05-29T06:24:46;99498.13;;;14.58;31.02
65534;BME280;53640;55.838;37.184;2023-05-29T06:27:14;99538.34;;;14.91;28.82
65534;BME280;53640;55.838;37.184;2023-05-29T06:29:41;99534.81;;;14.91;28.09
65534;BME280;53640;55.838;37.184;2023-05-29T06:32:08;99529.09;;;14.92;27.15
65534;BME280;53640;55.838;37.184;2023-05-29T06:34:34;99476.19;;;14.76;27.07
65534;BME280;53640;55.838;37.184;2023-05-29T06:37:02;99504.16;;;15.00;28.27
65534;BME280;53640;55.838;37.184;2023-05-29T06:39:45;99537.97;;;15.28;27.43
65534;BME280;53640;55.838;37.184;2023-05-29T06:42:14;99563.25;;;15.52;27.41
65534;BME280;53640;55.838;37.184;2023-05-29T06:44:43;99488.34;;;15.14;25.54
65534;BME280;53640;55.838;37.184;2023-05-29T06:47:20;99484.88;;;15.19;26.18
65534;BME280;53640;55.838;37.184;2023-05-29T06:50:09;99523.78;;;15.43;25.81
65534;BME280;53640;55.838;37.184;2023-05-29T06:53:08;99624.94;;;16.15;26.69
65534;BME280;53640;55.838;37.184;2023-05-29T06:56:05;99625.59;;;16.22;25.87
65534;BME280;53640;55.838;37.184;2023-05-29T07:02:42;99622.97;;;16.44;26.79
65534;BME280;53640;55.838;37.184;2023-05-29T07:05:42;99592.66;;;16.29;25.71
65534;BME280;53640;55.838;37.184;2023-05-29T07:08:08;99580.00;;;16.40;26.07
65534;BME280;53640;55.838;37.184;2023-05-29T07:10:35;99485.28;;;15.90;25.57
65534;BME280;53640;55.838;37.184;2023-05-29T07:13:02;99528.34;;;16.21;25.54
65534;BME280;53640;55.838;37.184;2023-05-29T07:15:29;99481.13;;;16.04;25.63
65534;BME280;53640;55.838;37.184;2023-05-29T07:17:59;99541.34;;;16.48;25.67
65534;BME280;53640;55.838;37.184;2023-05-29T07:20:31;99493.91;;;16.20;25.18
65534;BME280;53640;55.838;37.184;2023-05-29T07:23:02;99540.31;;;16.54;25.85
65534;BME280;53640;55.838;37.184;2023-05-29T07:25:30;99496.31;;;16.33;25.80
65534;BME280;53640;55.838;37.184;2023-05-29T07:27:59;99536.13;;;16.68;25.92
65534;BME280;53640;55.838;37.184;2023-05-29T07:30:27;99508.19;;;16.66;26.15
65534;BME280;53640;55.838;37.184;2023-05-29T07:32:54;99589.41;;;17.32;25.47
65534;BME280;53640;55.838;37.184;2023-05-29T07:35:20;99532.88;;;16.93;24.45
65534;BME280;53640;55.838;37.184;2023-05-29T07:37:48;99595.59;;;17.49;24.57
65534;BME280;53640;55.838;37.184;2023-05-29T07:40:16;99591.28;;;17.53;25.15
65534;BME280;53640;55.838;37.184;2023-05-29T07:43:06;99574.09;;;17.58;24.74
65534;BME280;53640;55.838;37.184;2023-05-29T07:45:44;99552.91;;;17.48;24.94
65534;BME280;53640;55.838;37.184;2023-05-29T07:48:11;99591.91;;;17.87;25.00
65534;BME280;53640;55.838;37.184;2023-05-29T07:50:38;99598.28;;;17.98;24.49
65534;BME280;53640;55.838;37.184;2023-05-29T07:53:07;99592.41;;;18.16;24.59
65534;BME280;53640;55.838;37.184;2023-05-29T07:55:36;99595.31;;;18.37;24.28
65534;BME280;53640;55.838;37.184;2023-05-29T07:58:04;99592.69;;;18.57;24.13
65534;BME280;53640;55.838;37.184;2023-05-29T08:00:32;99599.16;;;18.78;23.59
65534;BME280;53640;55.838;37.184;2023-05-29T08:08:02;99607.16;;;18.90;22.44
65534;BME280;53640;55.838;37.184;2023-05-29T08:11:14;99598.69;;;18.96;22.91
65534;BME280;53640;55.838;37.184;2023-05-29T08:20:34;99612.53;;;19.27;22.51
65534;BME280;53640;55.838;37.184;2023-05-29T08:23:01;99596.34;;;19.31;21.31
65534;BME280;53640;55.838;37.184;2023-05-29T08:25:28;99575.78;;;19.38;21.48
65534;BME280;53640;55.838;37.184;2023-05-29T08:27:57;99573.91;;;19.44;21.63
65534;BME280;53640;55.838;37.184;2023-05-29T08:30:23;99589.31;;;19.65;20.85
65534;BME280;53640;55.838;37.184;2023-05-29T08:32:50;99574.78;;;19.80;20.96
65534;BME280;53640;55.838;37.184;2023-05-29T08:35:16;99610.53;;;20.16;20.63
65534;BME280;53640;55.838;37.184;2023-05-29T08:37:43;99586.88;;;20.30;20.64
65534;BME280;53640;55.838;37.184;2023-05-29T08:40:12;99586.56;;;20.52;20.27
65534;BME280;53640;55.838;37.184;2023-05-29T08:43:32;99593.13;;;20.66;19.59
65534;BME280;53640;55.838;37.184;2023-05-29T08:46:03;99572.19;;;20.86;19.60
65534;BME280;53640;55.838;37.184;2023-05-29T08:48:30;99543.22;;;20.99;19.49
65534;BME280;53640;55.838;37.184;2023-05-29T08:50:58;99593.59;;;21.04;19.09
65534;BME280;53640;55.838;37.184;2023-05-29T08:53:29;99568.53;;;21.11;19.24
65534;BME280;53640;55.838;37.184;2023-05-29T08:55:57;99590.00;;;21.58;19.40
65534;BME280;53640;55.838;37.184;2023-05-29T08:58:24;99568.72;;;21.69;18.85
65534;BME280;53640;55.838;37.184;2023-05-29T09:00:52;99563.28;;;21.98;18.58
65534;BME280;53640;55.838;37.184;2023-05-29T09:03:19;99582.50;;;22.38;18.73
65534;BME280;53640;55.838;37.184;2023-05-29T09:05:48;99575.53;;;22.45;18.35
65534;BME280;53640;55.838;37.184;2023-05-29T09:08:15;99574.84;;;22.34;18.61
65534;BME280;53640;55.838;37.184;2023-05-29T09:10:43;99554.84;;;22.19;18.66
65534;BME280;53640;55.838;37.184;2023-05-29T09:13:10;99551.25;;;22.47;18.32
65534;BME280;53640;55.838;37.184;2023-05-29T09:15:37;99569.00;;;22.89;18.43
65534;BME280;53640;55.838;37.184;2023-05-29T09:18:06;99555.66;;;22.96;17.91
65534;BME280;53640;55.838;37.184;2023-05-29T09:20:34;99555.38;;;23.41;17.96
65534;BME280;53640;55.838;37.184;2023-05-29T09:23:09;99570.66;;;23.71;17.95
65534;BME280;53640;55.838;37.184;2023-05-29T09:25:41;99550.63;;;23.79;16.96
65534;BME280;53640;55.838;37.184;2023-05-29T09:31:52;99560.53;;;24.32;17.16
65534;BME280;53640;55.838;37.184;2023-05-29T09:34:19;99561.75;;;24.72;16.86
65534;BME280;53640;55.838;37.184;2023-05-29T09:36:45;99558.75;;;24.68;15.65
65534;BME280;53640;55.838;37.184;2023-05-29T09:39:11;99552.09;;;24.83;15.59
65534;BME280;53640;55.838;37.184;2023-05-29T09:41:44;99554.41;;;25.04;15.66
65534;BME280;53640;55.838;37.184;2023-05-29T09:44:15;99462.34;;;24.70;15.32
65534;BME280;53640;55.838;37.184;2023-05-29T09:46:42;99550.06;;;25.39;15.61
65534;BME280;53640;55.838;37.184;2023-05-29T09:49:12;99550.94;;;25.62;15.13
65534;BME280;53640;55.838;37.184;2023-05-29T09:51:39;99549.69;;;25.90;14.59
65534;BME280;53640;55.838;37.184;2023-05-29T09:56:42;99509.09;;;25.94;14.53
65534;BME280;53640;55.838;37.184;2023-05-29T09:59:14;99532.22;;;26.43;14.70
65534;BME280;53640;55.838;37.184;2023-05-29T10:01:41;99535.59;;;26.72;14.53
65534;BME280;53640;55.838;37.184;2023-05-29T10:04:08;99533.25;;;26.96;14.68
65534;BME280;53640;55.838;37.184;2023-05-29T10:06:44;99462.53;;;26.62;14.60
65534;BME280;53640;55.838;37.184;2023-05-29T10:09:14;99521.69;;;27.29;13.91
65534;BME280;53640;55.838;37.184;2023-05-29T10:11:43;99471.19;;;27.44;14.69
65534;BME280;53640;55.838;37.184;2023-05-29T10:14:21;99535.25;;;27.91;13.35
65534;BME280;53640;55.838;37.184;2023-05-29T10:16:50;99533.63;;;28.07;12.99
65534;BME280;53640;55.838;37.184;2023-05-29T10:19:28;99536.34;;;28.33;12.96
65534;BME280;53640;55.838;37.184;2023-05-29T10:21:57;99520.72;;;28.50;12.80
65534;BME280;53640;55.838;37.184;2023-05-29T10:24:27;99524.50;;;28.45;12.53
65534;BME280;53640;55.838;37.184;2023-05-29T10:26:55;99483.59;;;28.37;12.34
65534;BME280;53640;55.838;37.184;2023-05-29T10:29:39;99513.84;;;28.47;12.58
65534;BME280;53640;55.838;37.184;2023-05-29T10:32:36;99507.59;;;28.59;12.82
65534;BME280;53640;55.838;37.184;2023-05-29T10:35:12;99509.88;;;28.87;12.61
65534;BME280;53640;55.838;37.184;2023-05-29T10:37:54;99524.72;;;29.29;12.23
65534;BME280;53640;55.838;37.184;2023-05-29T10:40:26;99509.94;;;29.07;11.94
65534;BME280;53640;55.838;37.184;2023-05-29T10:42:56;99507.38;;;29.23;12.48
65534;BME280;53640;55.838;37.184;2023-05-29T10:50:56;99469.50;;;29.76;11.77
65534;BME280;53640;55.838;37.184;2023-05-29T10:53:25;99463.03;;;29.97;11.99
65534;BME280;53640;55.838;37.184;2023-05-29T10:55:56;99434.09;;;30.01;12.11
65534;BME280;53640;55.838;37.184;2023-05-29T10:58:24;99447.28;;;30.25;11.22
65534;BME280;53640;55.838;37.184;2023-05-29T11:00:53;99470.00;;;30.36;10.71
65534;BME280;53640;55.838;37.184;2023-05-29T11:03:26;99484.66;;;30.45;11.40
65534;BME280;53640;55.838;37.184;2023-05-29T11:06:00;99500.47;;;30.29;10.97
65534;BME280;53640;55.838;37.184;2023-05-29T11:08:34;99512.81;;;30.40;11.57
65534;BME280;53640;55.838;37.184;2023-05-29T11:11:03;99456.59;;;30.17;11.59
65534;BME280;53640;55.838;37.184;2023-05-29T11:13:34;99470.34;;;30.47;11.20
65534;BME280;53640;55.838;37.184;2023-05-29T11:16:12;99487.34;;;30.54;11.66
65534;BME280;53640;55.838;37.184;2023-05-29T11:18:46;99488.50;;;30.65;11.09
65534;BME280;53640;55.838;37.184;2023-05-29T11:24:01;99485.38;;;31.04;11.15
65534;BME280;53640;55.838;37.184;2023-05-29T11:26:33;99467.16;;;30.97;11.13
65534;BME280;53640;55.838;37.184;2023-05-29T11:29:02;99479.28;;;31.02;10.96
65534;BME280;53640;55.838;37.184;2023-05-29T11:31:31;99432.63;;;30.78;11.15
65534;BME280;53640;55.838;37.184;2023-05-29T11:34:00;99440.50;;;31.00;10.51
65534;BME280;53640;55.838;37.184;2023-05-29T11:36:28;99466.44;;;31.13;10.26
65534;BME280;53640;55.838;37.184;2023-05-29T11:38:56;99437.00;;;30.91;10.00
65534;BME280;53640;55.838;37.184;2023-05-29T11:41:24;99456.56;;;31.15;10.03
65534;BME280;53640;55.838;37.184;2023-05-29T11:44:04;99459.84;;;31.33;10.64
65534;BME280;53640;55.838;37.184;2023-05-29T11:46:33;99448.72;;;31.21;10.66
65534;BME280;53640;55.838;37.184;2023-05-29T11:49:01;99421.16;;;31.07;10.39
65534;BME280;53640;55.838;37.184;2023-05-29T11:51:28;99431.47;;;31.19;10.85
65534;BME280;53640;55.838;37.184;2023-05-29T11:53:55;99452.03;;;31.67;10.02
65534;BME280;53640;55.838;37.184;2023-05-29T11:56:26;99428.91;;;31.54;10.54
65534;BME280;53640;55.838;37.184;2023-05-29T11:58:54;99442.22;;;31.45;10.66
65534;BME280;53640;55.838;37.184;2023-05-29T12:01:24;99428.00;;;31.50;10.49
65534;BME280;53640;55.838;37.184;2023-05-29T12:03:52;99447.44;;;31.75;10.55
65534;BME280;53640;55.838;37.184;2023-05-29T12:06:35;99434.38;;;31.79;10.42
65534;BME280;53640;55.838;37.184;2023-05-29T12:09:03;99390.63;;;31.58;10.54
65534;BME280;53640;55.838;37.184;2023-05-29T12:11:31;99448.22;;;32.35;10.61
65534;BME280;53640;55.838;37.184;2023-05-29T12:13:59;99401.50;;;32.23;10.08
65534;BME280;53640;55.838;37.184;2023-05-29T12:16:30;99413.97;;;32.41;10.19
65534;BME280;53640;55.838;37.184;2023-05-29T12:18:58;99420.03;;;32.43;10.27
65534;BME280;53640;55.838;37.184;2023-05-29T12:21:26;99438.84;;;32.78;10.33
65534;BME280;53640;55.838;37.184;2023-05-29T12:23:54;99399.34;;;32.67;10.05
65534;BME280;53640;55.838;37.184;2023-05-29T12:26:22;99422.84;;;32.79;10.22
65534;BME280;53640;55.838;37.184;2023-05-29T12:28:50;99428.03;;;32.77;10.18
65534;BME280;53640;55.838;37.184;2023-05-29T12:31:28;99397.44;;;32.72;10.34
65534;BME280;53640;55.838;37.184;2023-05-29T12:34:07;99415.25;;;33.14;10.20
65534;BME280;53640;55.838;37.184;2023-05-29T12:36:34;99415.22;;;33.53;10.25
65534;BME280;53640;55.838;37.184;2023-05-29T12:39:05;99350.84;;;33.22;9.52
65534;BME280;53640;55.838;37.184;2023-05-29T12:41:36;99377.66;;;33.00;9.88
65534;BME280;53640;55.838;37.184;2023-05-29T12:44:04;99379.66;;;33.19;9.96
65534;BME280;53640;55.838;37.184;2023-05-29T12:46:40;99359.56;;;32.97;9.97
65534;BME280;53640;55.838;37.184;2023-05-29T12:49:17;99373.59;;;32.97;10.19
65534;BME280;53640;55.838;37.184;2023-05-29T12:51:46;99406.22;;;32.70;10.21
65534;BME280;53640;55.838;37.184;2023-05-29T12:54:15;99425.41;;;32.68;9.89
65534;BME280;53640;55.838;37.184;2023-05-29T12:56:41;99385.69;;;32.15;10.15
65534;BME280;53640;55.838;37.184;2023-05-29T12:59:09;99374.06;;;31.97;10.13
65534;BME280;53640;55.838;37.184;2023-05-29T13:01:37;99403.59;;;31.94;10.45
65534;BME280;53640;55.838;37.184;2023-05-29T13:04:07;99390.22;;;31.44;10.63
65534;BME280;53640;55.838;37.184;2023-05-29T13:06:39;99414.47;;;30.59;11.16
65534;BME280;53640;55.838;37.184;2023-05-29T13:09:07;99392.94;;;29.53;11.67
65534;BME280;53640;55.838;37.184;2023-05-29T13:11:35;99421.78;;;28.73;12.05
65534;BME280;53640;55.838;37.184;2023-05-29T13:14:02;99414.88;;;27.73;12.86
65534;BME280;53640;55.838;37.184;2023-05-29T13:16:29;99410.66;;;27.06;13.40
65534;BME280;53640;55.838;37.184;2023-05-29T13:18:55;99397.16;;;26.39;14.07
65534;BME280;53640;55.838;37.184;2023-05-29T13:21:21;99421.13;;;25.95;14.55
65534;BME280;53640;55.838;37.184;2023-05-29T13:23:48;99401.09;;;25.44;14.79
65534;BME280;53640;55.838;37.184;2023-05-29T13:26:15;99346.69;;;24.67;15.29
65534;BME280;53640;55.838;37.184;2023-05-29T13:28:41;99396.84;;;24.66;15.62
65534;BME280;53640;55.838;37.184;2023-05-29T13:31:09;99391.56;;;24.42;16.08
65534;BME280;53640;55.838;37.184;2023-05-29T13:33:35;99381.75;;;24.08;16.15
65534;BME280;53640;55.838;37.184;2023-05-29T13:36:02;99386.81;;;23.87;16.31
65534;BME280;53640;55.838;37.184;2023-05-29T13:38:29;99408.16;;;23.35;16.45
65534;BME280;53640;55.838;37.184;2023-05-29T13:40:55;99412.41;;;23.14;16.91
65534;BME280;53640;55.838;37.184;2023-05-29T13:43:22;99395.41;;;22.88;17.25